Time;durP1;ratioP1;P1;durP2;ratioP2;P2;SDS_P1;SDS_P2;PMS_P1;PMS_P2;Temp;Humidity;BMP_temperature;BMP_pressure;BME280_temperature;BME280_humidity;BME280_pressure;Samples;Min_cycle;Max_cycle;Signal;HPM_P1;HPM_P2
2021/06/26 00:05:15;;;;;;;9.00;5.80;;;;;;;16.88;74.07;99566.41;532277;1089;117958;-64
2021/06/26 00:15:21;;;;;;;6.87;5.37;;;;;;;17.02;74.32;99571.31;531805;1088;116486;-64
2021/06/26 00:25:28;;;;;;;7.23;6.20;;;;;;;17.19;74.04;99559.14;532564;1090;116400;-64
2021/06/26 00:35:34;;;;;;;7.87;6.77;;;;;;;17.12;73.78;99559.86;532675;1089;116043;-63
2021/06/26 00:45:40;;;;;;;9.20;7.50;;;;;;;17.03;74.04;99558.90;527642;1088;115810;-66
2021/06/26 00:55:52;;;;;;;7.13;6.30;;;;;;;16.96;74.25;99585.13;529230;1088;116014;-62
2021/06/26 01:05:58;;;;;;;7.90;6.40;;;;;;;16.99;74.36;99597.27;530734;1089;117645;-63
2021/06/26 01:16:06;;;;;;;6.83;6.27;;;;;;;17.04;74.41;99625.08;532638;1090;116271;-63
2021/06/26 01:26:12;;;;;;;7.67;6.40;;;;;;;17.14;74.44;99635.69;532575;1090;116710;-63
2021/06/26 01:36:18;;;;;;;7.77;7.03;;;;;;;17.14;74.43;99616.26;531787;1089;117053;-63
2021/06/26 01:46:25;;;;;;;7.87;7.17;;;;;;;17.12;74.29;99603.16;532568;1090;117201;-63
2021/06/26 01:56:32;;;;;;;8.13;7.03;;;;;;;17.06;74.27;99601.05;532561;1090;116740;-64
2021/06/26 02:06:39;;;;;;;9.78;7.13;;;;;;;16.94;74.53;99598.51;531906;1088;117172;-63
2021/06/26 02:16:45;;;;;;;9.67;7.47;;;;;;;17.02;74.71;99603.14;532578;1088;116529;-63
2021/06/26 02:26:52;;;;;;;13.93;7.73;;;;;;;17.08;74.72;99613.20;531847;1089;116958;-63
2021/06/26 02:36:58;;;;;;;10.37;7.80;;;;;;;17.18;74.78;99599.10;532554;1088;116213;-63
2021/06/26 02:47:05;;;;;;;9.67;7.97;;;;;;;17.09;74.56;99583.05;532595;1090;116908;-63
2021/06/26 02:57:11;;;;;;;8.97;7.73;;;;;;;17.00;74.96;99588.36;531935;1089;116005;-63
2021/06/26 03:07:18;;;;;;;8.07;7.37;;;;;;;17.95;75.20;99591.08;532640;1089;121600;-64
2021/06/26 03:17:24;;;;;;;8.13;6.70;;;;;;;19.94;72.41;99592.06;532542;1089;115838;-63
2021/06/26 03:27:31;;;;;;;10.23;8.63;;;;;;;21.93;69.50;99597.58;531866;1088;117156;-63
2021/06/26 03:37:38;;;;;;;8.23;7.53;;;;;;;21.61;66.38;99602.81;532445;1089;116824;-63
2021/06/26 03:47:44;;;;;;;8.73;6.57;;;;;;;20.74;66.71;99609.46;531949;1088;116387;-63
2021/06/26 03:57:51;;;;;;;7.43;6.80;;;;;;;22.61;64.40;99622.02;532570;1088;116236;-63
2021/06/26 04:07:58;;;;;;;10.40;7.50;;;;;;;21.25;64.56;99632.57;532650;1089;117472;-63
2021/06/26 04:18:05;;;;;;;8.80;7.95;;;;;;;20.21;66.02;99638.15;531868;1088;116782;-63
2021/06/26 04:28:12;;;;;;;10.00;8.97;;;;;;;19.71;66.40;99637.86;532571;1088;117653;-63
2021/06/26 04:38:21;;;;;;;9.50;8.40;;;;;;;19.22;67.91;99647.17;532608;1089;116558;-63
2021/06/26 04:48:29;;;;;;;9.07;7.90;;;;;;;19.09;67.99;99647.55;531838;1089;116207;-63
2021/06/26 04:58:36;;;;;;;9.38;8.50;;;;;;;18.88;68.72;99650.48;532624;1090;117222;-64
2021/06/26 05:08:42;;;;;;;10.65;9.35;;;;;;;18.85;69.13;99648.95;528508;1088;116610;-63
2021/06/26 05:18:49;;;;;;;10.53;8.70;;;;;;;19.21;69.10;99645.47;524518;1088;116976;-64
2021/06/26 05:28:55;;;;;;;9.37;8.40;;;;;;;19.89;68.91;99654.61;532653;1089;116033;-63
2021/06/26 05:39:04;;;;;;;8.68;7.88;;;;;;;20.19;67.94;99659.63;531911;1088;117554;-63
2021/06/26 05:49:10;;;;;;;10.30;9.33;;;;;;;20.09;67.78;99651.76;532391;1089;115603;-63
2021/06/26 05:59:16;;;;;;;10.67;9.67;;;;;;;20.20;68.14;99652.48;531806;1089;116244;-63
2021/06/26 06:09:23;;;;;;;14.23;10.00;;;;;;;20.86;67.24;99645.53;531797;1089;116616;-63
2021/06/26 06:19:30;;;;;;;10.70;9.58;;;;;;;21.47;66.16;99656.91;532185;1089;117694;-63
2021/06/26 06:29:37;;;;;;;11.60;9.90;;;;;;;21.77;65.55;99660.77;532510;1088;116363;-63
2021/06/26 06:39:43;;;;;;;14.27;12.97;;;;;;;22.04;64.98;99658.69;532321;1089;117452;-63
2021/06/26 06:49:50;;;;;;;16.17;14.80;;;;;;;22.13;64.71;99659.48;532574;1089;117189;-63
2021/06/26 06:59:56;;;;;;;23.03;20.73;;;;;;;21.81;64.63;99688.81;531784;1088;116551;-63
2021/06/26 07:10:03;;;;;;;24.67;22.27;;;;;;;21.58;64.36;99704.65;532372;1090;118414;-63
2021/06/26 07:20:12;;;;;;;25.07;22.87;;;;;;;21.03;65.01;99704.30;532604;1089;117058;-63
2021/06/26 07:30:19;;;;;;;21.63;19.53;;;;;;;21.74;64.65;99703.84;530198;1089;117110;-63
2021/06/26 07:40:27;;;;;;;16.83;15.23;;;;;;;22.64;63.40;99688.56;520401;1088;116918;-63
2021/06/26 07:50:34;;;;;;;14.30;13.10;;;;;;;24.09;61.44;99693.34;532450;1090;116519;-63
2021/06/26 08:00:41;;;;;;;12.13;10.90;;;;;;;25.69;58.75;99673.83;532444;1088;116803;-63
2021/06/26 08:10:48;;;;;;;8.60;7.78;;;;;;;27.35;55.52;99659.56;514568;1090;10001586;-64
2021/06/26 08:20:54;;;;;;;8.60;7.83;;;;;;;28.93;52.11;99664.13;531711;1089;116875;-64
2021/06/26 08:31:00;;;;;;;9.73;6.33;;;;;;;28.90;49.96;99667.27;532555;1088;116737;-64
2021/06/26 08:41:07;;;;;;;6.20;5.70;;;;;;;28.26;49.24;99653.63;532455;1089;115947;-64
2021/06/26 08:51:14;;;;;;;6.75;6.15;;;;;;;27.60;48.99;99652.75;531740;1089;117786;-65
2021/06/26 09:01:21;;;;;;;4.70;4.30;;;;;;;28.20;48.31;99654.50;532311;1089;116939;-65
2021/06/26 09:11:27;;;;;;;6.18;4.33;;;;;;;28.43;46.49;99648.57;532250;1089;116534;-66
2021/06/26 09:21:35;;;;;;;7.38;4.10;;;;;;;28.00;46.20;99647.25;531585;1089;116295;-67
2021/06/26 09:31:52;;;;;;;4.50;3.57;;;;;;;26.84;46.25;99650.15;532396;1090;117027;-65
2021/06/26 09:41:59;;;;;;;3.08;2.88;;;;;;;25.77;47.83;99645.11;531678;1088;118479;-70
2021/06/26 09:52:06;;;;;;;3.10;2.83;;;;;;;26.15;47.36;99633.96;532414;1089;115826;-69
2021/06/26 10:02:22;;;;;;;3.77;3.47;;;;;;;26.86;46.62;99635.45;530177;1089;116555;-69
2021/06/26 10:12:29;;;;;;;5.87;3.60;;;;;;;25.72;46.62;99632.25;531710;1088;115790;-72
2021/06/26 10:22:40;;;;;;;3.00;2.80;;;;;;;25.59;47.04;99636.52;532454;1088;117074;-66
2021/06/26 10:32:54;;;;;;;4.00;3.40;;;;;;;25.18;47.30;99632.66;531705;1088;116081;-73
2021/06/26 10:43:01;;;;;;;4.90;2.13;;;;;;;25.70;46.36;99623.56;532422;1088;116961;-67
2021/06/26 10:53:07;;;;;;;6.70;2.67;;;;;;;25.85;45.67;99635.02;532454;1090;116315;-66
2021/06/26 11:03:24;;;;;;;3.83;1.95;;;;;;;26.04;44.58;99623.77;529285;1089;116051;-66
2021/06/26 11:13:31;;;;;;;2.50;2.30;;;;;;;25.95;43.73;99615.01;532035;1089;116823;-70
2021/06/26 11:23:38;;;;;;;1.93;1.77;;;;;;;25.55;42.94;99616.44;528191;1089;116383;-71
2021/06/26 11:33:44;;;;;;;2.77;2.57;;;;;;;25.50;43.52;99613.49;527216;1089;116041;-70
2021/06/26 11:43:51;;;;;;;1.97;1.40;;;;;;;25.45;42.87;99603.33;531183;1089;115943;-64
2021/06/26 11:53:58;;;;;;;1.80;1.70;;;;;;;25.38;42.03;99597.06;514138;1089;116011;-64
2021/06/26 12:04:05;;;;;;;2.57;2.17;;;;;;;25.28;41.35;99596.57;527786;1089;116241;-65
2021/06/26 12:14:11;;;;;;;2.43;1.68;;;;;;;25.31;39.78;99586.27;532519;1088;117280;-65
2021/06/26 12:24:28;;;;;;;2.33;2.00;;;;;;;25.23;40.77;99580.22;531816;1088;117285;-65
2021/06/26 12:34:46;;;;;;;1.60;1.50;;;;;;;25.15;39.76;99568.58;522211;1089;10001484;-66
2021/06/26 12:44:58;;;;;;;2.30;2.10;;;;;;;25.23;40.87;99577.53;531671;1089;117087;-63
2021/06/26 12:55:06;;;;;;;2.23;2.05;;;;;;;25.06;40.57;99574.30;532425;1088;117095;-67
2021/06/26 13:05:24;;;;;;;2.63;1.98;;;;;;;25.24;40.99;99569.25;532429;1088;115971;-68
2021/06/26 13:15:31;;;;;;;3.65;2.80;;;;;;;25.85;40.49;99561.59;515108;1090;116283;-68
2021/06/26 13:25:38;;;;;;;2.30;2.10;;;;;;;26.24;39.18;99549.34;530453;1089;116144;-69
2021/06/26 13:35:45;;;;;;;2.60;2.40;;;;;;;26.10;39.66;99548.47;524686;1090;115546;-73
2021/06/26 13:45:52;;;;;;;4.50;2.15;;;;;;;26.26;39.75;99541.08;523107;1089;116525;-70
2021/06/26 13:55:59;;;;;;;3.40;2.93;;;;;;;26.05;40.16;99533.95;527333;1088;115723;-70
2021/06/26 14:06:06;;;;;;;3.25;2.40;;;;;;;26.15;40.14;99542.48;519314;1090;116184;-71
2021/06/26 14:16:13;;;;;;;2.68;2.55;;;;;;;26.11;40.47;99533.98;516751;1090;116388;-66
2021/06/26 14:26:21;;;;;;;2.80;2.60;;;;;;;25.79;40.42;99533.64;514096;1088;115842;-65
2021/06/26 14:36:28;;;;;;;5.83;2.83;;;;;;;25.60;39.99;99535.20;530235;1089;116047;-64
2021/06/26 14:46:35;;;;;;;3.63;3.18;;;;;;;25.13;42.61;99546.45;519992;1089;10001568;-64
2021/06/26 14:56:42;;;;;;;3.65;3.35;;;;;;;25.48;43.79;99552.89;524327;1089;117086;-65
2021/06/26 15:06:48;;;;;;;4.97;4.23;;;;;;;25.15;43.51;99560.52;532352;1090;115810;-64
2021/06/26 15:16:55;;;;;;;5.10;4.60;;;;;;;24.79;43.37;99561.46;532392;1089;115950;-64
2021/06/26 15:27:02;;;;;;;4.50;4.10;;;;;;;24.55;44.27;99568.00;531663;1089;115974;-64
2021/06/26 15:37:08;;;;;;;4.27;3.97;;;;;;;24.46;44.83;99556.56;532379;1088;116427;-64
2021/06/26 15:47:15;;;;;;;8.20;4.20;;;;;;;24.37;45.32;99542.44;532444;1089;116946;-64
2021/06/26 15:57:22;;;;;;;5.40;4.47;;;;;;;24.34;44.95;99532.91;531682;1089;116119;-63
2021/06/26 16:07:29;;;;;;;4.55;4.05;;;;;;;24.21;45.09;99532.77;531246;1089;116097;-64
2021/06/26 16:17:35;;;;;;;3.50;3.30;;;;;;;23.86;44.71;99524.49;531190;1088;116951;-64
2021/06/26 16:27:42;;;;;;;4.25;3.90;;;;;;;23.49;45.57;99533.30;532203;1089;116020;-66
2021/06/26 16:37:56;;;;;;;3.43;3.23;;;;;;;23.59;45.49;99534.84;527545;1090;116212;-66
2021/06/26 16:48:04;;;;;;;3.15;2.85;;;;;;;23.46;45.56;99538.19;530298;1089;115564;-66
2021/06/26 16:58:11;;;;;;;3.05;2.80;;;;;;;23.48;45.68;99522.75;532434;1088;116801;-66
2021/06/26 17:08:20;;;;;;;2.93;2.67;;;;;;;23.54;45.45;99515.83;532412;1089;116116;-67
2021/06/26 17:18:26;;;;;;;3.50;2.80;;;;;;;23.20;45.86;99528.69;530367;1089;116204;-71
2021/06/26 17:28:36;;;;;;;3.90;3.10;;;;;;;22.83;45.93;99533.89;532500;1089;116126;-67
2021/06/26 17:38:43;;;;;;;3.57;3.27;;;;;;;22.65;46.76;99523.50;531677;1089;117394;-63
2021/06/26 17:48:49;;;;;;;4.30;3.90;;;;;;;22.50;47.37;99523.44;532461;1089;116069;-63
2021/06/26 17:58:57;;;;;;;5.07;3.07;;;;;;;22.61;47.87;99522.17;532492;1089;116150;-63
2021/06/26 18:09:06;;;;;;;6.20;3.80;;;;;;;22.16;48.62;99525.44;531746;1089;118188;-63
2021/06/26 18:19:13;;;;;;;4.20;3.80;;;;;;;21.89;49.53;99543.63;532444;1089;116350;-62
2021/06/26 18:29:20;;;;;;;4.50;4.10;;;;;;;21.52;50.45;99551.22;532329;1089;115801;-67
2021/06/26 18:39:27;;;;;;;4.75;4.35;;;;;;;21.18;50.93;99568.33;531669;1090;116725;-66
2021/06/26 18:49:34;;;;;;;4.47;4.17;;;;;;;20.86;52.05;99584.16;532388;1089;116012;-65
2021/06/26 18:59:40;;;;;;;5.93;4.93;;;;;;;20.58;52.51;99599.59;530607;1090;115645;-66
2021/06/26 19:09:47;;;;;;;4.97;4.47;;;;;;;20.30;53.55;99607.87;531017;1088;116209;-64
2021/06/26 19:19:54;;;;;;;5.73;5.13;;;;;;;20.03;54.20;99612.44;531210;1089;117097;-64
2021/06/26 19:30:00;;;;;;;10.43;5.60;;;;;;;19.93;55.08;99625.86;530339;1089;115782;-64
2021/06/26 19:40:09;;;;;;;7.37;5.67;;;;;;;19.76;55.71;99611.58;532530;1088;116212;-64
2021/06/26 19:50:16;;;;;;;6.53;5.90;;;;;;;19.57;56.60;99628.61;532479;1089;115789;-64
2021/06/26 20:00:23;;;;;;;6.27;5.10;;;;;;;19.29;58.07;99645.55;531770;1090;116147;-64
2021/06/26 20:10:30;;;;;;;5.93;5.33;;;;;;;19.02;58.78;99641.14;528837;1088;115838;-72
2021/06/26 20:20:38;;;;;;;14.33;5.77;;;;;;;18.93;59.79;99644.67;532345;1090;116126;-71
2021/06/26 20:30:45;;;;;;;8.28;5.63;;;;;;;18.79;60.10;99651.38;532060;1090;116919;-71
2021/06/26 20:40:52;;;;;;;7.77;5.90;;;;;;;18.46;61.01;99659.81;530614;1088;116045;-71
2021/06/26 20:50:59;;;;;;;6.43;5.83;;;;;;;18.07;61.99;99658.19;531799;1088;116732;-71
2021/06/26 21:01:05;;;;;;;8.43;6.90;;;;;;;17.80;62.63;99654.45;532404;1090;115808;-71
2021/06/26 21:11:12;;;;;;;6.77;5.40;;;;;;;17.59;63.35;99655.46;532360;1088;116100;-71
2021/06/26 21:21:18;;;;;;;6.73;5.67;;;;;;;17.45;63.89;99654.11;531752;1088;116195;-71
2021/06/26 21:31:25;;;;;;;11.33;7.77;;;;;;;17.23;64.31;99653.42;532525;1090;115832;-71
2021/06/26 21:41:31;;;;;;;11.23;8.60;;;;;;;16.98;64.95;99649.47;532525;1090;116235;-68
2021/06/26 21:51:38;;;;;;;10.47;7.67;;;;;;;16.81;65.65;99635.07;531779;1089;116954;-64
2021/06/26 22:01:46;;;;;;;13.17;9.20;;;;;;;16.76;66.24;99635.48;532486;1089;116656;-64
2021/06/26 22:11:52;;;;;;;10.05;8.18;;;;;;;16.63;66.54;99630.45;531686;1090;117276;-64
2021/06/26 22:21:59;;;;;;;10.80;8.47;;;;;;;16.58;66.04;99631.84;532362;1089;116632;-63
2021/06/26 22:32:08;;;;;;;11.65;8.25;;;;;;;16.28;66.98;99638.86;532406;1090;116699;-65
2021/06/26 22:42:16;;;;;;;9.10;8.20;;;;;;;15.97;67.31;99645.84;529821;1089;116702;-59
2021/06/26 22:52:22;;;;;;;9.17;8.27;;;;;;;15.76;68.04;99643.20;528391;1089;171125;-62
2021/06/26 23:02:29;;;;;;;8.37;7.57;;;;;;;15.73;68.56;99629.38;532627;1089;117179;-61
2021/06/26 23:12:36;;;;;;;9.27;8.37;;;;;;;15.67;68.47;99628.95;531828;1089;115825;-61
2021/06/26 23:22:43;;;;;;;10.63;8.50;;;;;;;15.61;68.94;99647.16;532598;1088;116554;-61
2021/06/26 23:32:49;;;;;;;12.70;9.20;;;;;;;15.41;68.82;99641.72;531929;1090;116796;-61
2021/06/26 23:42:56;;;;;;;12.75;10.75;;;;;;;15.15;69.39;99635.95;532630;1089;116842;-61
2021/06/26 23:53:03;;;;;;;12.00;9.27;;;;;;;15.13;69.66;99628.98;532603;1090;116178;-61
